Time;durP1;ratioP1;P1;durP2;ratioP2;P2;SDS_P1;SDS_P2;PMS_P1;PMS_P2;Temp;Humidity;BMP_temperature;BMP_pressure;BME280_temperature;BME280_humidity;BME280_pressure;Samples;Min_cycle;Max_cycle;Signal;HPM_P1;HPM_P2
2022/11/11 00:00:04;;;;;;;30.95;21.30;;;;;;;;;;5053452;28;20378;-73
2022/11/11 00:02:30;;;;;;;31.35;21.85;;;;;;;;;;5052566;28;20540;-73
2022/11/11 00:04:56;;;;;;;30.02;21.42;;;;;;;;;;5053033;28;20055;-73
2022/11/11 00:07:22;;;;;;;30.63;21.33;;;;;;;;;;5052738;28;20111;-74
2022/11/11 00:09:48;;;;;;;31.02;23.00;;;;;;;;;;5053010;28;20482;-73
2022/11/11 00:12:14;;;;;;;28.67;20.10;;;;;;;;;;5052619;28;20455;-73
2022/11/11 00:14:40;;;;;;;29.75;21.75;;;;;;;;;;5052824;28;20166;-73
2022/11/11 00:25:21;;;;;;;27.42;18.92;;;;;;;;;;5052746;28;20052;-73
2022/11/11 00:27:47;;;;;;;30.75;19.45;;;;;;;;;;5052394;28;20036;-73
2022/11/11 00:30:13;;;;;;;25.50;18.38;;;;;;;;;;5036844;28;20099;-74
2022/11/11 00:32:39;;;;;;;25.08;18.02;;;;;;;;;;5052060;28;20021;-73
2022/11/11 00:37:50;;;;;;;27.80;18.98;;;;;;;;;;5039124;28;20040;-73
2022/11/11 00:40:16;;;;;;;28.13;18.48;;;;;;;;;;5052436;28;20029;-73
2022/11/11 00:42:42;;;;;;;26.92;18.83;;;;;;;;;;5052501;28;20466;-73
2022/11/11 00:45:09;;;;;;;28.00;19.55;;;;;;;;;;5040317;28;20496;-73
2022/11/11 00:53:08;;;;;;;27.35;19.00;;;;;;;;;;5052309;28;20051;-73
2022/11/11 00:55:34;;;;;;;29.35;20.48;;;;;;;;;;5052171;28;20147;-73
2022/11/11 00:58:00;;;;;;;25.98;17.83;;;;;;;;;;5051260;28;20028;-73
2022/11/11 01:00:26;;;;;;;28.92;17.38;;;;;;;;;;5052516;28;20036;-73
2022/11/11 01:02:52;;;;;;;24.38;18.30;;;;;;;;;;5052301;28;20061;-73
2022/11/11 01:05:18;;;;;;;25.80;18.90;;;;;;;;;;5052239;28;20017;-73
2022/11/11 01:07:44;;;;;;;28.25;19.60;;;;;;;;;;5052213;28;20033;-73
2022/11/11 01:10:11;;;;;;;26.35;17.95;;;;;;;;;;5034128;28;20475;-73
2022/11/11 01:12:37;;;;;;;22.88;17.05;;;;;;;;;;5041737;28;20021;-73
2022/11/11 01:15:03;;;;;;;26.70;17.83;;;;;;;;;;5055880;28;20075;-73
2022/11/11 01:17:29;;;;;;;23.25;16.42;;;;;;;;;;5056396;28;20027;-73
2022/11/11 01:19:55;;;;;;;24.58;16.77;;;;;;;;;;5055959;28;20087;-73
2022/11/11 01:22:21;;;;;;;22.58;16.20;;;;;;;;;;5055940;28;20021;-73
2022/11/11 01:24:47;;;;;;;24.23;17.23;;;;;;;;;;5055780;28;20549;-73
2022/11/11 01:27:13;;;;;;;23.30;16.85;;;;;;;;;;5055831;28;20045;-73
2022/11/11 01:29:39;;;;;;;21.35;16.02;;;;;;;;;;5055810;28;20071;-73
2022/11/11 01:32:05;;;;;;;22.58;16.23;;;;;;;;;;5055600;28;20021;-74
2022/11/11 01:34:31;;;;;;;24.75;16.88;;;;;;;;;;5055680;28;20082;-73
2022/11/11 01:36:57;;;;;;;22.17;16.02;;;;;;;;;;5055866;28;20464;-73
2022/11/11 01:39:23;;;;;;;23.20;15.98;;;;;;;;;;5055201;28;20032;-73
2022/11/11 01:41:49;;;;;;;22.70;16.90;;;;;;;;;;5055717;28;20021;-73
2022/11/11 01:44:15;;;;;;;23.45;17.08;;;;;;;;;;5055174;28;20143;-74
2022/11/11 01:46:43;;;;;;;24.77;17.65;;;;;;;;;;5055604;28;20086;-74
2022/11/11 01:49:18;;;;;;;24.33;17.58;;;;;;;;;;5055395;28;20048;-75
2022/11/11 01:51:50;;;;;;;28.90;18.98;;;;;;;;;;5055242;28;20479;-74
2022/11/11 01:54:21;;;;;;;23.73;16.83;;;;;;;;;;5055593;28;20028;-74
2022/11/11 01:56:49;;;;;;;23.42;16.17;;;;;;;;;;5035497;28;20476;-75
2022/11/11 01:59:16;;;;;;;22.25;17.25;;;;;;;;;;5046111;28;20033;-75
2022/11/11 02:01:42;;;;;;;22.92;15.95;;;;;;;;;;5055009;28;20041;-74
2022/11/11 02:06:55;;;;;;;21.60;15.27;;;;;;;;;;5052964;28;20563;-74
2022/11/11 02:09:22;;;;;;;27.83;16.02;;;;;;;;;;5055299;28;20108;-73
2022/11/11 02:14:41;;;;;;;25.60;17.35;;;;;;;;;;5055164;28;20048;-73
2022/11/11 02:17:09;;;;;;;25.98;17.83;;;;;;;;;;5054538;28;20405;-74
2022/11/11 02:19:40;;;;;;;21.73;15.65;;;;;;;;;;5054996;28;20426;-75
2022/11/11 02:22:07;;;;;;;22.40;16.45;;;;;;;;;;5054624;28;20739;-73
2022/11/11 02:24:34;;;;;;;22.80;16.67;;;;;;;;;;5053709;28;20126;-73
2022/11/11 02:27:01;;;;;;;19.88;15.05;;;;;;;;;;5054572;28;20043;-73
2022/11/11 02:29:28;;;;;;;22.58;14.95;;;;;;;;;;5054866;28;20027;-73
2022/11/11 02:31:54;;;;;;;20.98;14.50;;;;;;;;;;5054443;28;20018;-73
2022/11/11 02:34:20;;;;;;;21.10;14.48;;;;;;;;;;5054617;28;20024;-74
2022/11/11 02:36:46;;;;;;;20.05;13.25;;;;;;;;;;5054553;28;20453;-73
2022/11/11 02:39:12;;;;;;;20.27;14.93;;;;;;;;;;5054543;28;20047;-73
2022/11/11 02:41:56;;;;;;;21.88;14.40;;;;;;;;;;5054355;28;20013;-73
2022/11/11 02:44:23;;;;;;;21.48;14.57;;;;;;;;;;5053856;28;20109;-73
2022/11/11 02:46:49;;;;;;;24.38;14.85;;;;;;;;;;5026129;28;20021;-73
2022/11/11 02:49:15;;;;;;;24.45;16.23;;;;;;;;;;5050531;28;20021;-73
2022/11/11 02:51:41;;;;;;;24.00;16.77;;;;;;;;;;5054406;28;20021;-73
2022/11/11 02:54:07;;;;;;;21.52;14.15;;;;;;;;;;5054406;28;20029;-73
2022/11/11 02:59:20;;;;;;;19.25;14.80;;;;;;;;;;5054179;28;20036;-73
2022/11/11 03:01:47;;;;;;;22.08;15.05;;;;;;;;;;5054074;28;20013;-73
2022/11/11 03:04:13;;;;;;;19.75;14.77;;;;;;;;;;5053885;28;20070;-74
2022/11/11 03:06:39;;;;;;;20.63;14.18;;;;;;;;;;5054076;28;20108;-73
2022/11/11 03:09:05;;;;;;;22.10;14.55;;;;;;;;;;5053910;28;20035;-75
2022/11/11 03:11:32;;;;;;;19.00;12.93;;;;;;;;;;5053944;28;20017;-75
2022/11/11 03:13:59;;;;;;;18.80;13.55;;;;;;;;;;5015563;28;20048;-75
2022/11/11 03:19:10;;;;;;;20.10;13.77;;;;;;;;;;5040549;28;20525;-75
2022/11/11 03:21:36;;;;;;;23.58;16.15;;;;;;;;;;5053813;28;20025;-74
2022/11/11 03:24:02;;;;;;;19.23;14.52;;;;;;;;;;5053605;28;20428;-73
2022/11/11 03:26:28;;;;;;;20.55;15.45;;;;;;;;;;5053623;28;20021;-73
2022/11/11 03:28:55;;;;;;;20.88;14.45;;;;;;;;;;5053354;28;20155;-73
2022/11/11 03:31:21;;;;;;;19.20;14.30;;;;;;;;;;5053633;28;20025;-73
2022/11/11 03:33:47;;;;;;;18.08;12.80;;;;;;;;;;5053272;28;20501;-73
2022/11/11 03:36:13;;;;;;;19.60;13.75;;;;;;;;;;5052889;28;20486;-74
2022/11/11 03:38:39;;;;;;;17.30;12.98;;;;;;;;;;5053482;28;20060;-73
2022/11/11 03:41:05;;;;;;;16.05;11.60;;;;;;;;;;5053250;28;20028;-74
2022/11/11 03:43:33;;;;;;;17.65;12.68;;;;;;;;;;5053386;28;20051;-73
2022/11/11 03:46:00;;;;;;;18.88;13.50;;;;;;;;;;5052962;28;20052;-74
2022/11/11 03:48:28;;;;;;;17.88;12.90;;;;;;;;;;5053206;28;20525;-73
2022/11/11 03:50:54;;;;;;;18.60;14.25;;;;;;;;;;5053026;28;20108;-74
2022/11/11 03:53:24;;;;;;;22.52;13.93;;;;;;;;;;5052975;28;20496;-74
2022/11/11 03:55:50;;;;;;;22.92;14.68;;;;;;;;;;5053427;28;20094;-74
2022/11/11 03:58:17;;;;;;;19.73;13.75;;;;;;;;;;5052862;28;20040;-74
2022/11/11 04:00:44;;;;;;;24.13;14.38;;;;;;;;;;5042856;28;20025;-74
2022/11/11 04:11:28;;;;;;;19.50;13.88;;;;;;;;;;5052728;28;20564;-74
2022/11/11 04:16:42;;;;;;;23.02;16.75;;;;;;;;;;5052781;28;20501;-73
2022/11/11 04:21:53;;;;;;;22.65;15.10;;;;;;;;;;5052712;28;20486;-74
2022/11/11 04:27:06;;;;;;;24.38;17.75;;;;;;;;;;5052864;28;20039;-74
2022/11/11 04:29:33;;;;;;;21.75;14.57;;;;;;;;;;5052603;28;20071;-74
2022/11/11 04:34:49;;;;;;;22.92;15.45;;;;;;;;;;5052559;28;20036;-74
2022/11/11 04:37:15;;;;;;;26.48;17.83;;;;;;;;;;5052458;28;20108;-73
2022/11/11 04:42:27;;;;;;;25.00;16.98;;;;;;;;;;5052744;28;20391;-74
2022/11/11 04:47:38;;;;;;;20.65;14.57;;;;;;;;;;5052747;28;20158;-74
2022/11/11 04:50:04;;;;;;;20.35;14.63;;;;;;;;;;5051303;28;20029;-73
2022/11/11 04:52:31;;;;;;;20.15;13.98;;;;;;;;;;5056530;28;20029;-73
2022/11/11 04:57:44;;;;;;;21.42;14.35;;;;;;;;;;5056340;28;20044;-74
2022/11/11 05:00:12;;;;;;;23.90;15.10;;;;;;;;;;5056442;28;20028;-73
2022/11/11 05:05:24;;;;;;;20.70;14.98;;;;;;;;;;5056110;28;20071;-73
2022/11/11 05:10:35;;;;;;;21.95;15.95;;;;;;;;;;5056546;28;20391;-73
2022/11/11 05:21:20;;;;;;;23.13;15.57;;;;;;;;;;5056160;28;20426;-73
2022/11/11 05:26:31;;;;;;;18.95;14.07;;;;;;;;;;5056625;28;20078;-74
2022/11/11 05:28:57;;;;;;;20.23;14.32;;;;;;;;;;5055835;28;20479;-73
2022/11/11 05:31:23;;;;;;;20.73;14.18;;;;;;;;;;5055712;28;20127;-74
2022/11/11 05:33:49;;;;;;;24.58;17.08;;;;;;;;;;5055802;28;20395;-73
2022/11/11 05:36:15;;;;;;;26.50;18.92;;;;;;;;;;5055611;28;20021;-73
2022/11/11 05:38:41;;;;;;;29.60;18.75;;;;;;;;;;5055725;28;20065;-73
2022/11/11 05:41:08;;;;;;;24.23;17.60;;;;;;;;;;5055758;28;20021;-74
2022/11/11 05:43:34;;;;;;;23.27;17.02;;;;;;;;;;5055961;28;20033;-74
2022/11/11 05:46:00;;;;;;;28.15;18.38;;;;;;;;;;5055203;28;20249;-74
2022/11/11 05:48:26;;;;;;;24.63;16.45;;;;;;;;;;5055469;28;20024;-74
2022/11/11 05:50:52;;;;;;;32.80;17.52;;;;;;;;;;5055381;28;20036;-73
2022/11/11 05:53:22;;;;;;;32.25;18.48;;;;;;;;;;5055270;28;20096;-73
2022/11/11 05:55:52;;;;;;;24.85;18.05;;;;;;;;;;5055213;28;20082;-73
2022/11/11 05:58:18;;;;;;;26.30;16.48;;;;;;;;;;5055330;28;20061;-74
2022/11/11 06:00:44;;;;;;;29.42;17.77;;;;;;;;;;5055064;28;20375;-74
2022/11/11 06:03:10;;;;;;;29.05;17.02;;;;;;;;;;5054995;28;20069;-74
2022/11/11 06:05:37;;;;;;;28.50;22.10;;;;;;;;;;5055110;28;20013;-73
2022/11/11 06:08:03;;;;;;;27.02;18.88;;;;;;;;;;5055207;28;20024;-73
2022/11/11 06:10:29;;;;;;;33.42;18.65;;;;;;;;;;5054855;28;20073;-73
2022/11/11 06:13:03;;;;;;;29.67;18.50;;;;;;;;;;5055206;28;20467;-73
2022/11/11 06:15:30;;;;;;;27.48;18.95;;;;;;;;;;5055107;28;20021;-74
2022/11/11 06:17:56;;;;;;;30.80;17.75;;;;;;;;;;5054816;28;20410;-73
2022/11/11 06:20:22;;;;;;;25.60;17.50;;;;;;;;;;5054807;28;20024;-73
2022/11/11 06:22:57;;;;;;;27.05;18.85;;;;;;;;;;5054798;28;20460;-73
2022/11/11 06:28:13;;;;;;;29.63;19.83;;;;;;;;;;5054940;28;20048;-73
2022/11/11 06:30:39;;;;;;;34.30;20.38;;;;;;;;;;5054744;28;20031;-74
2022/11/11 06:33:08;;;;;;;41.40;20.20;;;;;;;;;;5054552;28;20025;-73
2022/11/11 06:35:38;;;;;;;32.97;20.70;;;;;;;;;;5054575;28;20025;-73
2022/11/11 06:38:06;;;;;;;21.58;16.00;;;;;;;;;;5054309;28;20071;-73
2022/11/11 06:40:32;;;;;;;31.42;16.92;;;;;;;;;;5039293;28;20045;-74
2022/11/11 06:42:58;;;;;;;24.67;15.80;;;;;;;;;;5054367;28;20033;-74
2022/11/11 06:45:25;;;;;;;28.17;17.00;;;;;;;;;;5054259;28;20110;-75
2022/11/11 06:47:51;;;;;;;25.23;18.42;;;;;;;;;;5054279;28;20021;-73
2022/11/11 06:50:17;;;;;;;30.27;20.83;;;;;;;;;;5054295;28;20020;-74
2022/11/11 06:52:44;;;;;;;31.00;18.85;;;;;;;;;;5054024;28;20079;-74
2022/11/11 06:55:10;;;;;;;37.05;22.13;;;;;;;;;;5054202;28;20024;-74
2022/11/11 06:57:36;;;;;;;39.08;20.30;;;;;;;;;;5054134;28;20553;-74
2022/11/11 07:00:06;;;;;;;35.63;22.20;;;;;;;;;;5054131;28;20119;-74
2022/11/11 07:02:32;;;;;;;29.67;19.77;;;;;;;;;;5054051;28;20379;-74
2022/11/11 07:04:58;;;;;;;26.27;18.42;;;;;;;;;;5054613;28;20037;-74
2022/11/11 07:07:25;;;;;;;22.83;15.73;;;;;;;;;;5053848;28;20040;-73
2022/11/11 07:09:51;;;;;;;25.15;16.23;;;;;;;;;;5054055;28;20032;-73
2022/11/11 07:12:17;;;;;;;22.35;15.73;;;;;;;;;;5053034;28;20021;-74
2022/11/11 07:14:43;;;;;;;33.50;16.92;;;;;;;;;;5054240;28;20029;-74
2022/11/11 07:17:09;;;;;;;21.13;14.20;;;;;;;;;;5053745;28;20017;-73
2022/11/11 07:19:35;;;;;;;17.42;12.85;;;;;;;;;;5053821;28;20024;-74
2022/11/11 07:22:01;;;;;;;26.48;14.98;;;;;;;;;;5053243;28;20375;-74
2022/11/11 07:24:27;;;;;;;28.88;18.52;;;;;;;;;;5053598;28;20391;-73
2022/11/11 07:26:53;;;;;;;24.40;15.65;;;;;;;;;;5053448;28;20036;-73
2022/11/11 07:29:19;;;;;;;24.73;16.10;;;;;;;;;;5053576;28;20021;-73
2022/11/11 07:31:46;;;;;;;19.73;13.20;;;;;;;;;;5053862;28;20060;-73
2022/11/11 07:34:12;;;;;;;21.27;15.43;;;;;;;;;;5053052;28;20025;-73
2022/11/11 07:36:38;;;;;;;22.02;12.55;;;;;;;;;;5053384;28;20017;-74
2022/11/11 07:39:04;;;;;;;19.75;14.43;;;;;;;;;;5053016;28;20082;-74
2022/11/11 07:41:30;;;;;;;20.13;14.20;;;;;;;;;;5053320;28;20093;-73
2022/11/11 07:43:56;;;;;;;19.30;13.93;;;;;;;;;;5052775;28;20033;-74
2022/11/11 07:46:22;;;;;;;25.83;14.20;;;;;;;;;;5053316;28;20104;-73
2022/11/11 07:48:48;;;;;;;23.95;15.77;;;;;;;;;;5050710;28;20068;-75
2022/11/11 07:51:14;;;;;;;31.35;18.83;;;;;;;;;;5052869;28;20021;-74
2022/11/11 07:53:40;;;;;;;26.25;16.42;;;;;;;;;;5052893;28;20029;-74
2022/11/11 07:56:07;;;;;;;32.00;15.63;;;;;;;;;;5053067;28;20099;-74
2022/11/11 07:58:33;;;;;;;31.13;18.15;;;;;;;;;;5052730;28;20021;-73
2022/11/11 08:00:59;;;;;;;25.73;16.45;;;;;;;;;;5053112;28;20032;-74
2022/11/11 08:03:25;;;;;;;27.67;15.60;;;;;;;;;;5052469;28;20541;-74
2022/11/11 08:05:51;;;;;;;31.65;19.90;;;;;;;;;;5041541;28;20511;-73
2022/11/11 08:08:23;;;;;;;25.25;16.90;;;;;;;;;;5047615;28;20025;-74
2022/11/11 08:10:49;;;;;;;23.92;16.80;;;;;;;;;;5052857;28;20021;-74
2022/11/11 08:16:01;;;;;;;28.75;18.33;;;;;;;;;;5053201;28;20094;-74
2022/11/11 08:18:27;;;;;;;27.48;19.08;;;;;;;;;;5052397;28;20451;-74
2022/11/11 08:20:53;;;;;;;19.98;14.70;;;;;;;;;;5052607;28;20032;-74
2022/11/11 08:23:30;;;;;;;21.67;14.13;;;;;;;;;;5051405;28;20541;-73
2022/11/11 08:25:57;;;;;;;19.77;13.25;;;;;;;;;;5052749;28;20017;-73
2022/11/11 08:28:23;;;;;;;20.17;14.23;;;;;;;;;;5052535;28;20029;-75
2022/11/11 08:30:49;;;;;;;25.77;19.05;;;;;;;;;;5052781;28;20086;-74
2022/11/11 08:33:15;;;;;;;20.98;14.45;;;;;;;;;;5040395;28;20025;-73
2022/11/11 08:35:41;;;;;;;22.50;16.48;;;;;;;;;;5049676;28;20028;-74
2022/11/11 08:38:08;;;;;;;20.65;15.13;;;;;;;;;;5052338;28;20028;-73
2022/11/11 08:40:34;;;;;;;23.88;15.27;;;;;;;;;;5052362;28;20021;-74
2022/11/11 08:43:00;;;;;;;15.80;11.75;;;;;;;;;;5052333;28;20390;-74
2022/11/11 08:45:26;;;;;;;14.07;11.32;;;;;;;;;;5052205;28;20433;-74
2022/11/11 08:47:52;;;;;;;15.13;10.63;;;;;;;;;;5052343;28;20024;-75
2022/11/11 08:50:18;;;;;;;14.75;10.45;;;;;;;;;;5052151;28;20099;-74
2022/11/11 08:52:51;;;;;;;10.88;9.18;;;;;;;;;;5052194;28;20067;-75
2022/11/11 08:55:17;;;;;;;16.15;10.38;;;;;;;;;;5052186;28;20370;-74
2022/11/11 08:57:43;;;;;;;18.15;12.00;;;;;;;;;;5052517;28;20067;-74
2022/11/11 09:00:10;;;;;;;18.92;10.98;;;;;;;;;;5052187;28;20029;-74
2022/11/11 09:02:36;;;;;;;20.90;11.55;;;;;;;;;;5052134;28;20496;-74
2022/11/11 09:05:03;;;;;;;17.13;10.93;;;;;;;;;;5035568;28;20041;-74
2022/11/11 09:07:29;;;;;;;19.52;13.57;;;;;;;;;;5052277;28;20021;-74
2022/11/11 09:09:55;;;;;;;17.15;12.23;;;;;;;;;;5036533;28;20036;-74
2022/11/11 09:12:21;;;;;;;19.25;12.25;;;;;;;;;;5052348;28;20518;-74
2022/11/11 09:14:48;;;;;;;21.30;12.70;;;;;;;;;;5051993;28;20087;-75
2022/11/11 09:17:15;;;;;;;21.45;13.38;;;;;;;;;;5051972;28;20507;-74
2022/11/11 09:19:41;;;;;;;18.58;13.48;;;;;;;;;;5051668;28;20060;-75
2022/11/11 09:22:07;;;;;;;26.48;16.27;;;;;;;;;;5051783;28;20025;-75
2022/11/11 09:24:33;;;;;;;27.27;17.27;;;;;;;;;;5052014;28;20078;-75
2022/11/11 09:26:59;;;;;;;29.80;17.05;;;;;;;;;;5051906;28;20025;-74
2022/11/11 09:29:25;;;;;;;22.55;16.55;;;;;;;;;;5051841;28;20021;-74
2022/11/11 09:31:51;;;;;;;25.85;16.08;;;;;;;;;;5052025;28;20031;-74
2022/11/11 09:34:18;;;;;;;17.67;13.25;;;;;;;;;;5052966;28;20425;-74
2022/11/11 09:36:44;;;;;;;17.52;12.98;;;;;;;;;;5055401;28;20021;-73
2022/11/11 09:39:10;;;;;;;14.07;11.73;;;;;;;;;;5055066;28;20032;-74
2022/11/11 09:41:36;;;;;;;20.67;13.75;;;;;;;;;;5055675;28;20021;-74
2022/11/11 09:44:03;;;;;;;16.23;11.85;;;;;;;;;;5054994;28;20047;-74
2022/11/11 09:46:50;;;;;;;19.20;14.50;;;;;;;;;;5055540;28;20483;-74
2022/11/11 09:49:25;;;;;;;20.27;12.85;;;;;;;;;;5054892;28;20025;-73
2022/11/11 09:51:54;;;;;;;17.95;12.43;;;;;;;;;;5055458;28;20384;-73
2022/11/11 09:54:46;;;;;;;32.92;21.83;;;;;;;;;;5055436;28;20024;-74
2022/11/11 09:57:23;;;;;;;26.30;18.52;;;;;;;;;;5051430;28;20087;-74
2022/11/11 09:59:51;;;;;;;21.92;15.25;;;;;;;;;;5055136;28;20111;-75
2022/11/11 10:02:38;;;;;;;24.27;16.63;;;;;;;;;;5055052;28;20028;-74
2022/11/11 10:05:14;;;;;;;21.88;18.02;;;;;;;;;;5054960;28;20472;-74
2022/11/11 10:07:49;;;;;;;16.08;11.30;;;;;;;;;;5042662;28;20033;-74
2022/11/11 10:10:29;;;;;;;21.83;18.40;;;;;;;;;;5052026;28;20036;-73
2022/11/11 10:12:56;;;;;;;18.73;13.57;;;;;;;;;;5055056;28;20075;-74
2022/11/11 10:15:24;;;;;;;17.35;13.82;;;;;;;;;;5054943;28;20541;-74
2022/11/11 10:17:56;;;;;;;24.35;15.60;;;;;;;;;;5054763;28;20029;-74
2022/11/11 10:20:27;;;;;;;24.23;15.52;;;;;;;;;;5054807;28;20029;-74
2022/11/11 10:23:05;;;;;;;29.75;23.50;;;;;;;;;;5054378;28;20025;-74
2022/11/11 10:25:31;;;;;;;21.75;17.20;;;;;;;;;;5054826;28;20386;-74
2022/11/11 10:27:58;;;;;;;12.23;10.52;;;;;;;;;;5054805;28;20032;-74
2022/11/11 10:30:26;;;;;;;17.02;12.35;;;;;;;;;;5054239;28;20029;-74
2022/11/11 10:33:13;;;;;;;15.15;10.65;;;;;;;;;;5054743;28;20017;-74
2022/11/11 10:35:40;;;;;;;15.50;12.75;;;;;;;;;;5054064;28;20036;-74
2022/11/11 10:38:09;;;;;;;16.98;10.98;;;;;;;;;;5054524;28;20402;-74
2022/11/11 10:40:55;;;;;;;22.27;11.88;;;;;;;;;;5054230;28;20491;-74
2022/11/11 10:43:22;;;;;;;15.75;10.75;;;;;;;;;;5054621;28;20033;-74
2022/11/11 10:46:01;;;;;;;13.73;10.63;;;;;;;;;;5051697;28;20123;-74
2022/11/11 10:48:38;;;;;;;14.65;10.75;;;;;;;;;;5054324;28;20033;-75
2022/11/11 10:51:04;;;;;;;14.05;9.93;;;;;;;;;;5054010;28;20025;-74
2022/11/11 10:53:53;;;;;;;15.10;10.57;;;;;;;;;;5053844;28;20033;-74
2022/11/11 10:56:23;;;;;;;14.25;9.05;;;;;;;;;;5043355;28;20487;-74
2022/11/11 10:58:56;;;;;;;14.45;9.57;;;;;;;;;;5053892;28;20116;-74
2022/11/11 11:01:26;;;;;;;14.20;9.63;;;;;;;;;;5053764;28;20052;-74
2022/11/11 11:03:57;;;;;;;11.18;8.65;;;;;;;;;;5053675;28;20032;-74
2022/11/11 11:06:31;;;;;;;9.75;7.20;;;;;;;;;;5053787;28;20025;-75
2022/11/11 11:09:00;;;;;;;11.88;8.63;;;;;;;;;;5040133;28;20502;-74
2022/11/11 11:11:30;;;;;;;12.82;9.23;;;;;;;;;;5053581;28;20103;-75
2022/11/11 11:14:01;;;;;;;13.63;9.57;;;;;;;;;;5053589;28;20146;-74
2022/11/11 11:16:31;;;;;;;15.95;9.00;;;;;;;;;;5053949;28;20068;-75
2022/11/11 11:19:15;;;;;;;12.50;8.70;;;;;;;;;;5053430;28;20021;-75
2022/11/11 11:22:08;;;;;;;17.45;10.30;;;;;;;;;;5053699;28;20021;-74
2022/11/11 11:24:39;;;;;;;10.80;7.38;;;;;;;;;;5039657;28;20037;-75
2022/11/11 11:27:05;;;;;;;;;;;;;;;;;;5052292;28;20041;-75
2022/11/11 11:29:32;;;;;;;9.90;7.00;;;;;;;;;;5053253;28;19905;-74
2022/11/11 11:32:13;;;;;;;8.55;7.05;;;;;;;;;;5053205;28;20025;-74
2022/11/11 11:34:48;;;;;;;15.15;8.77;;;;;;;;;;5053386;28;20428;-74
2022/11/11 11:37:15;;;;;;;12.60;8.80;;;;;;;;;;5053074;28;20483;-75
2022/11/11 11:39:41;;;;;;;10.95;8.45;;;;;;;;;;5053331;28;20029;-74
2022/11/11 11:42:09;;;;;;;7.95;6.35;;;;;;;;;;5053285;28;20031;-75
2022/11/11 11:44:39;;;;;;;17.00;10.05;;;;;;;;;;5052808;28;20052;-74
2022/11/11 11:47:25;;;;;;;18.30;9.88;;;;;;;;;;5037991;28;20074;-75
2022/11/11 11:50:05;;;;;;;14.75;10.00;;;;;;;;;;5040377;28;20033;-75
2022/11/11 11:52:50;;;;;;;12.10;9.20;;;;;;;;;;5052878;28;20083;-75
2022/11/11 11:55:21;;;;;;;11.55;9.13;;;;;;;;;;5052755;28;20056;-75
2022/11/11 11:57:57;;;;;;;25.08;21.30;;;;;;;;;;5052586;28;20394;-75
2022/11/11 12:00:24;;;;;;;21.08;12.20;;;;;;;;;;5052809;28;20028;-74
2022/11/11 12:03:17;;;;;;;14.65;9.05;;;;;;;;;;5052693;28;20092;-74
2022/11/11 12:05:48;;;;;;;18.55;11.13;;;;;;;;;;5040545;28;20024;-75
2022/11/11 12:08:19;;;;;;;11.50;7.85;;;;;;;;;;5052678;28;20074;-74
2022/11/11 12:10:58;;;;;;;15.93;7.30;;;;;;;;;;5052708;28;20032;-75
2022/11/11 12:13:34;;;;;;;10.77;8.43;;;;;;;;;;5052526;28;20040;-75
2022/11/11 12:16:15;;;;;;;13.90;9.23;;;;;;;;;;5052766;28;20025;-74
2022/11/11 12:18:44;;;;;;;9.40;7.35;;;;;;;;;;5052499;28;20025;-75
2022/11/11 12:21:21;;;;;;;13.93;9.90;;;;;;;;;;5052488;28;20021;-74
2022/11/11 12:23:57;;;;;;;18.33;10.65;;;;;;;;;;5052730;28;20068;-74
2022/11/11 12:26:37;;;;;;;13.02;9.93;;;;;;;;;;5052420;28;20021;-75
2022/11/11 12:29:03;;;;;;;10.88;8.00;;;;;;;;;;5052200;28;20079;-75
2022/11/11 12:31:41;;;;;;;15.50;9.68;;;;;;;;;;5052481;28;20025;-75
2022/11/11 12:34:33;;;;;;;8.27;6.45;;;;;;;;;;5052146;28;20053;-74
2022/11/11 12:37:02;;;;;;;10.07;7.18;;;;;;;;;;5049747;28;20040;-75
2022/11/11 12:39:40;;;;;;;12.02;7.53;;;;;;;;;;5052318;28;20490;-75
2022/11/11 12:42:18;;;;;;;20.92;13.48;;;;;;;;;;5052358;28;20048;-74
2022/11/11 12:44:51;;;;;;;21.67;10.77;;;;;;;;;;5039215;28;20059;-74
2022/11/11 12:47:17;;;;;;;22.73;14.45;;;;;;;;;;5036933;28;20551;-74
2022/11/11 12:50:04;;;;;;;19.23;13.20;;;;;;;;;;5052595;28;20083;-75
2022/11/11 12:52:45;;;;;;;14.77;11.45;;;;;;;;;;5038786;28;20102;-74
2022/11/11 12:55:17;;;;;;;18.50;11.52;;;;;;;;;;5052117;28;20021;-74
2022/11/11 12:58:10;;;;;;;15.80;11.13;;;;;;;;;;5052379;28;20363;-73
2022/11/11 13:00:56;;;;;;;17.67;13.20;;;;;;;;;;5040004;28;20028;-73
2022/11/11 13:03:32;;;;;;;14.95;10.25;;;;;;;;;;4970958;28;20034;-74
2022/11/11 13:05:58;;;;;;;20.63;15.90;;;;;;;;;;4971293;28;20044;-74
2022/11/11 13:08:31;;;;;;;21.75;15.30;;;;;;;;;;4971096;28;20043;-74
2022/11/11 13:10:58;;;;;;;22.58;15.93;;;;;;;;;;4975438;28;20038;-74
2022/11/11 13:13:42;;;;;;;27.83;18.65;;;;;;;;;;4974882;28;20480;-74
2022/11/11 13:16:09;;;;;;;22.98;12.95;;;;;;;;;;4975445;28;20552;-74
2022/11/11 13:18:50;;;;;;;27.60;14.65;;;;;;;;;;4975075;28;20031;-74
2022/11/11 13:21:22;;;;;;;21.70;13.98;;;;;;;;;;4975065;28;20049;-75
2022/11/11 13:23:48;;;;;;;37.95;30.10;;;;;;;;;;4961022;28;20161;-74
2022/11/11 13:26:24;;;;;;;31.02;19.80;;;;;;;;;;4974942;28;20154;-74
2022/11/11 13:28:50;;;;;;;25.30;17.45;;;;;;;;;;4975053;28;20060;-73
2022/11/11 13:31:23;;;;;;;66.13;49.88;;;;;;;;;;4974808;28;20034;-74
2022/11/11 13:33:52;;;;;;;50.30;40.22;;;;;;;;;;4974996;28;20173;-74
2022/11/11 13:36:23;;;;;;;19.70;15.23;;;;;;;;;;4967357;28;20066;-74
2022/11/11 13:38:58;;;;;;;23.25;17.02;;;;;;;;;;4953274;28;20481;-75
2022/11/11 13:41:29;;;;;;;24.35;14.98;;;;;;;;;;5047081;28;20499;-75
2022/11/11 13:43:55;;;;;;;;;;;;;;;;;;5055834;28;20049;-75
2022/11/11 13:46:27;;;;;;;21.42;15.57;;;;;;;;;;5047420;28;20289;-75
2022/11/11 13:48:54;;;;;;;42.95;23.55;;;;;;;;;;5035571;28;20407;-74
2022/11/11 13:51:27;;;;;;;46.72;27.20;;;;;;;;;;5054509;28;20079;-75
2022/11/11 13:53:53;;;;;;;41.83;26.73;;;;;;;;;;5055428;28;20108;-75
2022/11/11 13:56:22;;;;;;;36.75;24.02;;;;;;;;;;5055242;28;20459;-75
2022/11/11 13:58:49;;;;;;;35.28;23.58;;;;;;;;;;5055447;28;20079;-75
2022/11/11 14:01:16;;;;;;;32.20;21.30;;;;;;;;;;5055077;28;20540;-75
2022/11/11 14:03:45;;;;;;;35.55;20.90;;;;;;;;;;5054968;28;20079;-74
2022/11/11 14:06:14;;;;;;;34.70;19.95;;;;;;;;;;5054918;28;20029;-74
2022/11/11 14:08:46;;;;;;;26.17;20.27;;;;;;;;;;5055089;28;20475;-74
2022/11/11 14:11:24;;;;;;;31.30;21.75;;;;;;;;;;5054898;28;20032;-74
2022/11/11 14:13:51;;;;;;;29.60;22.40;;;;;;;;;;5054715;28;20478;-74
2022/11/11 14:16:35;;;;;;;30.10;23.25;;;;;;;;;;5054704;28;20083;-74
2022/11/11 14:19:13;;;;;;;28.88;20.77;;;;;;;;;;5054685;28;20463;-74
2022/11/11 14:21:42;;;;;;;30.25;25.20;;;;;;;;;;5054921;28;20017;-74
2022/11/11 14:24:09;;;;;;;30.25;22.65;;;;;;;;;;5054406;28;20032;-74
2022/11/11 14:26:35;;;;;;;28.55;20.85;;;;;;;;;;5054834;28;20092;-74
2022/11/11 14:29:04;;;;;;;31.52;22.38;;;;;;;;;;5035316;28;20025;-73
2022/11/11 14:31:33;;;;;;;36.90;26.20;;;;;;;;;;5045088;28;20574;-74
2022/11/11 14:34:14;;;;;;;34.70;27.50;;;;;;;;;;5054359;28;20056;-74
2022/11/11 14:36:40;;;;;;;;;;;;;;;;;;5055048;28;20029;-74
2022/11/11 14:39:14;;;;;;;44.10;29.88;;;;;;;;;;5038896;28;19928;-74
2022/11/11 14:41:40;;;;;;;34.08;25.58;;;;;;;;;;5041920;28;20037;-74
2022/11/11 14:44:26;;;;;;;37.28;24.50;;;;;;;;;;5049580;28;20041;-73
2022/11/11 14:47:07;;;;;;;30.35;21.40;;;;;;;;;;5054550;28;20106;-74
2022/11/11 14:49:50;;;;;;;29.73;22.40;;;;;;;;;;5054200;28;20090;-74
2022/11/11 14:52:19;;;;;;;31.92;21.67;;;;;;;;;;5053944;28;20108;-73
2022/11/11 14:54:54;;;;;;;32.35;22.75;;;;;;;;;;5054332;28;20036;-74
2022/11/11 14:57:22;;;;;;;33.10;23.00;;;;;;;;;;5054099;28;20021;-74
2022/11/11 14:59:49;;;;;;;38.55;28.08;;;;;;;;;;5054222;28;20028;-74
2022/11/11 15:02:29;;;;;;;61.58;35.75;;;;;;;;;;5053938;28;20021;-74
2022/11/11 15:04:58;;;;;;;51.10;36.75;;;;;;;;;;5054374;28;20029;-74
2022/11/11 15:07:36;;;;;;;39.65;29.00;;;;;;;;;;5053875;28;20016;-74
2022/11/11 15:10:19;;;;;;;39.83;27.38;;;;;;;;;;5053923;28;20475;-74
2022/11/11 15:12:45;;;;;;;45.75;32.70;;;;;;;;;;5053683;28;20020;-74
2022/11/11 15:15:29;;;;;;;48.50;30.75;;;;;;;;;;5053656;28;20043;-73
2022/11/11 15:18:02;;;;;;;36.33;26.75;;;;;;;;;;5053857;28;20467;-73
2022/11/11 15:20:28;;;;;;;46.33;32.03;;;;;;;;;;5053414;28;20123;-73
2022/11/11 15:23:20;;;;;;;52.30;35.25;;;;;;;;;;5053612;28;20032;-73
2022/11/11 15:25:47;;;;;;;54.85;39.63;;;;;;;;;;4972221;28;20047;-74
2022/11/11 15:28:25;;;;;;;71.63;49.70;;;;;;;;;;4962323;28;20095;-74
2022/11/11 15:31:00;;;;;;;61.60;43.28;;;;;;;;;;4955179;28;20054;-74
2022/11/11 15:33:35;;;;;;;67.50;47.47;;;;;;;;;;4956320;28;20027;-74
2022/11/11 15:36:06;;;;;;;69.93;49.22;;;;;;;;;;4972247;28;20081;-74
2022/11/11 15:38:32;;;;;;;64.88;47.28;;;;;;;;;;4972448;28;20477;-74
2022/11/11 15:40:59;;;;;;;62.45;43.88;;;;;;;;;;4972397;28;20027;-73
2022/11/11 15:43:29;;;;;;;59.88;45.65;;;;;;;;;;4972479;28;20082;-73
2022/11/11 15:45:56;;;;;;;55.47;41.42;;;;;;;;;;4971993;28;20170;-73
2022/11/11 15:48:25;;;;;;;58.33;42.25;;;;;;;;;;4972618;28;20307;-73